sensor_id;sensor_type;location;lat;lon;timestamp;temperature;humidity
48208;DHT22;33997;53.278;9.708;2023-05-29T00:01:25;10.60;83.90
48208;DHT22;33997;53.278;9.708;2023-05-29T00:03:51;10.60;84.30
48208;DHT22;33997;53.278;9.708;2023-05-29T00:06:17;10.60;84.40
48208;DHT22;33997;53.278;9.708;2023-05-29T00:08:43;10.50;84.50
48208;DHT22;33997;53.278;9.708;2023-05-29T00:11:08;10.50;84.40
48208;DHT22;33997;53.278;9.708;2023-05-29T00:13:34;10.50;84.50
48208;DHT22;33997;53.278;9.708;2023-05-29T00:15:59;10.50;84.40
48208;DHT22;33997;53.278;9.708;2023-05-29T00:18:26;10.50;84.50
48208;DHT22;33997;53.278;9.708;2023-05-29T00:20:52;10.50;84.50
48208;DHT22;33997;53.278;9.708;2023-05-29T00:23:18;10.50;84.50
48208;DHT22;33997;53.278;9.708;2023-05-29T00:25:44;10.50;84.40
48208;DHT22;33997;53.278;9.708;2023-05-29T00:28:10;10.50;84.20
48208;DHT22;33997;53.278;9.708;2023-05-29T00:30:37;10.50;84.50
48208;DHT22;33997;53.278;9.708;2023-05-29T00:33:02;10.50;84.30
48208;DHT22;33997;53.278;9.708;2023-05-29T00:35:28;10.40;84.10
48208;DHT22;33997;53.278;9.708;2023-05-29T00:37:53;10.40;84.30
48208;DHT22;33997;53.278;9.708;2023-05-29T00:40:19;10.30;84.20
48208;DHT22;33997;53.278;9.708;2023-05-29T00:42:44;10.30;84.20
48208;DHT22;33997;53.278;9.708;2023-05-29T00:45:10;10.30;84.60
48208;DHT22;33997;53.278;9.708;2023-05-29T00:47:36;10.30;84.10
48208;DHT22;33997;53.278;9.708;2023-05-29T00:50:02;10.30;83.90
48208;DHT22;33997;53.278;9.708;2023-05-29T00:52:29;10.30;84.00
48208;DHT22;33997;53.278;9.708;2023-05-29T00:54:55;10.20;84.10
48208;DHT22;33997;53.278;9.708;2023-05-29T00:57:20;10.20;84.20
48208;DHT22;33997;53.278;9.708;2023-05-29T00:59:47;10.10;84.20
48208;DHT22;33997;53.278;9.708;2023-05-29T01:02:14;10.10;83.90
48208;DHT22;33997;53.278;9.708;2023-05-29T01:04:40;10.10;83.90
48208;DHT22;33997;53.278;9.708;2023-05-29T01:07:06;10.10;83.60
48208;DHT22;33997;53.278;9.708;2023-05-29T01:09:32;10.10;83.30
48208;DHT22;33997;53.278;9.708;2023-05-29T01:20:27;10.10;83.40
48208;DHT22;33997;53.278;9.708;2023-05-29T01:26:23;10.00;82.50
48208;DHT22;33997;53.278;9.708;2023-05-29T01:28:52;10.10;82.70
48208;DHT22;33997;53.278;9.708;2023-05-29T01:31:23;10.10;82.60
48208;DHT22;33997;53.278;9.708;2023-05-29T01:33:57;10.00;82.40
48208;DHT22;33997;53.278;9.708;2023-05-29T01:36:23;10.00;82.60
48208;DHT22;33997;53.278;9.708;2023-05-29T01:38:50;9.80;82.30
48208;DHT22;33997;53.278;9.708;2023-05-29T01:41:17;9.80;82.40
48208;DHT22;33997;53.278;9.708;2023-05-29T01:43:45;9.80;82.60
48208;DHT22;33997;53.278;9.708;2023-05-29T01:46:13;9.80;82.80
48208;DHT22;33997;53.278;9.708;2023-05-29T01:48:43;9.60;82.60
48208;DHT22;33997;53.278;9.708;2023-05-29T01:51:10;9.60;83.10
48208;DHT22;33997;53.278;9.708;2023-05-29T01:53:39;9.50;83.00
48208;DHT22;33997;53.278;9.708;2023-05-29T01:56:06;9.40;83.10
48208;DHT22;33997;53.278;9.708;2023-05-29T01:58:34;9.40;83.10
48208;DHT22;33997;53.278;9.708;2023-05-29T02:01:01;9.30;83.70
48208;DHT22;33997;53.278;9.708;2023-05-29T02:03:29;9.20;83.70
48208;DHT22;33997;53.278;9.708;2023-05-29T02:05:58;9.10;84.00
48208;DHT22;33997;53.278;9.708;2023-05-29T02:08:24;9.10;84.20
48208;DHT22;33997;53.278;9.708;2023-05-29T02:10:50;9.00;84.00
48208;DHT22;33997;53.278;9.708;2023-05-29T02:13:16;9.00;84.20
48208;DHT22;33997;53.278;9.708;2023-05-29T02:15:42;9.00;84.20
48208;DHT22;33997;53.278;9.708;2023-05-29T02:18:14;9.00;84.50
48208;DHT22;33997;53.278;9.708;2023-05-29T02:20:40;9.00;84.20
48208;DHT22;33997;53.278;9.708;2023-05-29T02:23:07;8.90;84.10
48208;DHT22;33997;53.278;9.708;2023-05-29T02:25:33;9.00;84.10
48208;DHT22;33997;53.278;9.708;2023-05-29T02:27:58;9.00;84.10
48208;DHT22;33997;53.278;9.708;2023-05-29T02:30:24;9.00;84.20
48208;DHT22;33997;53.278;9.708;2023-05-29T02:32:49;8.90;84.20
48208;DHT22;33997;53.278;9.708;2023-05-29T02:35:15;8.90;84.00
48208;DHT22;33997;53.278;9.708;2023-05-29T02:37:42;8.80;84.30
48208;DHT22;33997;53.278;9.708;2023-05-29T02:40:08;8.70;84.00
48208;DHT22;33997;53.278;9.708;2023-05-29T02:42:34;8.70;84.60
48208;DHT22;33997;53.278;9.708;2023-05-29T02:44:59;8.50;84.60
48208;DHT22;33997;53.278;9.708;2023-05-29T02:47:25;8.40;84.60
48208;DHT22;33997;53.278;9.708;2023-05-29T02:49:51;8.40;85.00
48208;DHT22;33997;53.278;9.708;2023-05-29T02:52:16;8.20;85.60
48208;DHT22;33997;53.278;9.708;2023-05-29T02:54:42;8.20;85.60
48208;DHT22;33997;53.278;9.708;2023-05-29T02:57:07;8.10;85.70
48208;DHT22;33997;53.278;9.708;2023-05-29T02:59:33;8.00;85.90
48208;DHT22;33997;53.278;9.708;2023-05-29T03:01:58;8.00;86.10
48208;DHT22;33997;53.278;9.708;2023-05-29T03:04:24;8.00;86.00
48208;DHT22;33997;53.278;9.708;2023-05-29T03:06:49;7.90;86.50
48208;DHT22;33997;53.278;9.708;2023-05-29T03:09:15;7.90;86.60
48208;DHT22;33997;53.278;9.708;2023-05-29T03:11:41;7.70;86.70
48208;DHT22;33997;53.278;9.708;2023-05-29T03:14:07;7.80;87.10
48208;DHT22;33997;53.278;9.708;2023-05-29T03:16:33;7.70;87.10
48208;DHT22;33997;53.278;9.708;2023-05-29T03:18:58;7.70;87.20
48208;DHT22;33997;53.278;9.708;2023-05-29T03:21:24;7.80;86.80
48208;DHT22;33997;53.278;9.708;2023-05-29T03:23:49;7.70;87.00
48208;DHT22;33997;53.278;9.708;2023-05-29T03:26:15;7.70;86.70
48208;DHT22;33997;53.278;9.708;2023-05-29T03:28:41;7.70;87.10
48208;DHT22;33997;53.278;9.708;2023-05-29T03:31:06;7.60;87.00
48208;DHT22;33997;53.278;9.708;2023-05-29T03:33:34;7.60;87.30
48208;DHT22;33997;53.278;9.708;2023-05-29T03:36:00;7.60;87.20
48208;DHT22;33997;53.278;9.708;2023-05-29T03:38:25;7.60;87.40
48208;DHT22;33997;53.278;9.708;2023-05-29T03:40:51;7.60;87.60
48208;DHT22;33997;53.278;9.708;2023-05-29T03:43:16;7.60;87.60
48208;DHT22;33997;53.278;9.708;2023-05-29T03:45:42;7.70;87.60
48208;DHT22;33997;53.278;9.708;2023-05-29T03:48:07;7.70;87.70
48208;DHT22;33997;53.278;9.708;2023-05-29T03:50:33;7.80;87.10
48208;DHT22;33997;53.278;9.708;2023-05-29T03:52:58;7.80;87.20
48208;DHT22;33997;53.278;9.708;2023-05-29T03:55:26;7.90;87.20
48208;DHT22;33997;53.278;9.708;2023-05-29T03:57:52;7.90;87.20
48208;DHT22;33997;53.278;9.708;2023-05-29T04:00:17;7.90;87.00
48208;DHT22;33997;53.278;9.708;2023-05-29T04:02:43;8.00;87.20
48208;DHT22;33997;53.278;9.708;2023-05-29T04:05:08;8.00;87.00
48208;DHT22;33997;53.278;9.708;2023-05-29T04:07:35;8.00;86.60
48208;DHT22;33997;53.278;9.708;2023-05-29T04:10:02;8.00;86.70
48208;DHT22;33997;53.278;9.708;2023-05-29T04:12:28;8.00;87.00
48208;DHT22;33997;53.278;9.708;2023-05-29T04:14:53;8.10;87.10
48208;DHT22;33997;53.278;9.708;2023-05-29T04:17:19;8.00;86.50
48208;DHT22;33997;53.278;9.708;2023-05-29T04:19:44;8.00;86.70
48208;DHT22;33997;53.278;9.708;2023-05-29T04:22:10;8.00;86.80
48208;DHT22;33997;53.278;9.708;2023-05-29T04:24:36;8.10;87.00
48208;DHT22;33997;53.278;9.708;2023-05-29T04:27:01;8.10;86.90
48208;DHT22;33997;53.278;9.708;2023-05-29T04:29:28;8.10;86.90
48208;DHT22;33997;53.278;9.708;2023-05-29T04:31:54;8.20;86.60
48208;DHT22;33997;53.278;9.708;2023-05-29T04:34:20;8.30;86.30
48208;DHT22;33997;53.278;9.708;2023-05-29T04:36:47;8.30;86.10
48208;DHT22;33997;53.278;9.708;2023-05-29T04:39:12;8.40;85.80
48208;DHT22;33997;53.278;9.708;2023-05-29T04:41:39;8.40;86.10
48208;DHT22;33997;53.278;9.708;2023-05-29T04:44:06;8.50;85.60
48208;DHT22;33997;53.278;9.708;2023-05-29T04:46:33;8.50;85.30
48208;DHT22;33997;53.278;9.708;2023-05-29T04:49:00;8.50;85.10
48208;DHT22;33997;53.278;9.708;2023-05-29T04:51:28;8.60;85.50
48208;DHT22;33997;53.278;9.708;2023-05-29T04:53:55;8.60;84.90
48208;DHT22;33997;53.278;9.708;2023-05-29T04:56:20;8.70;84.30
48208;DHT22;33997;53.278;9.708;2023-05-29T04:58:47;8.70;84.50
48208;DHT22;33997;53.278;9.708;2023-05-29T05:01:13;8.80;84.30
48208;DHT22;33997;53.278;9.708;2023-05-29T05:03:43;8.80;84.30
48208;DHT22;33997;53.278;9.708;2023-05-29T05:06:09;8.90;83.90
48208;DHT22;33997;53.278;9.708;2023-05-29T05:08:35;8.90;83.30
48208;DHT22;33997;53.278;9.708;2023-05-29T05:11:01;8.90;83.50
48208;DHT22;33997;53.278;9.708;2023-05-29T05:13:27;9.10;83.50
48208;DHT22;33997;53.278;9.708;2023-05-29T05:15:53;9.10;83.00
48208;DHT22;33997;53.278;9.708;2023-05-29T05:18:19;9.10;82.40
48208;DHT22;33997;53.278;9.708;2023-05-29T05:20:44;9.20;82.30
48208;DHT22;33997;53.278;9.708;2023-05-29T05:23:10;9.40;82.30
48208;DHT22;33997;53.278;9.708;2023-05-29T05:25:36;9.30;81.20
48208;DHT22;33997;53.278;9.708;2023-05-29T05:28:04;9.40;81.50
48208;DHT22;33997;53.278;9.708;2023-05-29T05:30:30;9.60;82.20
48208;DHT22;33997;53.278;9.708;2023-05-29T05:32:55;9.60;82.20
48208;DHT22;33997;53.278;9.708;2023-05-29T05:35:21;9.70;81.50
48208;DHT22;33997;53.278;9.708;2023-05-29T05:37:47;9.80;81.20
48208;DHT22;33997;53.278;9.708;2023-05-29T05:40:13;9.90;81.10
48208;DHT22;33997;53.278;9.708;2023-05-29T05:42:38;9.90;79.50
48208;DHT22;33997;53.278;9.708;2023-05-29T05:45:04;10.00;80.40
48208;DHT22;33997;53.278;9.708;2023-05-29T05:47:32;10.10;79.30
48208;DHT22;33997;53.278;9.708;2023-05-29T05:49:57;10.10;80.20
48208;DHT22;33997;53.278;9.708;2023-05-29T05:52:24;10.20;78.80
48208;DHT22;33997;53.278;9.708;2023-05-29T05:54:50;10.40;79.00
48208;DHT22;33997;53.278;9.708;2023-05-29T05:57:15;10.50;78.80
48208;DHT22;33997;53.278;9.708;2023-05-29T05:59:41;10.60;78.30
48208;DHT22;33997;53.278;9.708;2023-05-29T06:02:06;10.70;77.80
48208;DHT22;33997;53.278;9.708;2023-05-29T06:04:32;10.50;76.60
48208;DHT22;33997;53.278;9.708;2023-05-29T06:06:58;10.70;76.40
48208;DHT22;33997;53.278;9.708;2023-05-29T06:09:23;10.70;75.90
48208;DHT22;33997;53.278;9.708;2023-05-29T06:11:50;10.80;76.00
48208;DHT22;33997;53.278;9.708;2023-05-29T06:14:15;10.80;76.10
48208;DHT22;33997;53.278;9.708;2023-05-29T06:16:41;11.10;75.50
48208;DHT22;33997;53.278;9.708;2023-05-29T06:19:07;11.10;74.60
48208;DHT22;33997;53.278;9.708;2023-05-29T06:21:33;11.10;74.90
48208;DHT22;33997;53.278;9.708;2023-05-29T06:23:59;11.10;74.20
48208;DHT22;33997;53.278;9.708;2023-05-29T06:26:24;11.00;74.40
48208;DHT22;33997;53.278;9.708;2023-05-29T06:28:50;11.40;75.00
48208;DHT22;33997;53.278;9.708;2023-05-29T06:31:16;11.50;73.50
48208;DHT22;33997;53.278;9.708;2023-05-29T06:33:42;11.80;74.30
48208;DHT22;33997;53.278;9.708;2023-05-29T06:36:07;11.90;74.40
48208;DHT22;33997;53.278;9.708;2023-05-29T06:38:33;11.70;71.60
48208;DHT22;33997;53.278;9.708;2023-05-29T06:40:58;11.90;72.10
48208;DHT22;33997;53.278;9.708;2023-05-29T06:43:24;12.00;71.40
48208;DHT22;33997;53.278;9.708;2023-05-29T06:45:49;12.30;71.20
48208;DHT22;33997;53.278;9.708;2023-05-29T06:48:15;12.60;70.50
48208;DHT22;33997;53.278;9.708;2023-05-29T06:50:40;12.30;70.10
48208;DHT22;33997;53.278;9.708;2023-05-29T06:53:06;12.50;70.40
48208;DHT22;33997;53.278;9.708;2023-05-29T06:55:31;13.00;73.30
48208;DHT22;33997;53.278;9.708;2023-05-29T06:57:57;13.10;69.90
48208;DHT22;33997;53.278;9.708;2023-05-29T07:00:22;13.00;69.20
48208;DHT22;33997;53.278;9.708;2023-05-29T07:02:48;12.80;69.80
48208;DHT22;33997;53.278;9.708;2023-05-29T07:05:14;12.80;67.70
48208;DHT22;33997;53.278;9.708;2023-05-29T07:07:39;13.10;68.30
48208;DHT22;33997;53.278;9.708;2023-05-29T07:10:05;13.20;69.00
48208;DHT22;33997;53.278;9.708;2023-05-29T07:12:31;13.20;66.80
48208;DHT22;33997;53.278;9.708;2023-05-29T07:14:56;12.90;69.00
48208;DHT22;33997;53.278;9.708;2023-05-29T07:17:22;12.60;67.10
48208;DHT22;33997;53.278;9.708;2023-05-29T07:19:47;12.60;68.40
48208;DHT22;33997;53.278;9.708;2023-05-29T07:22:15;12.70;68.70
48208;DHT22;33997;53.278;9.708;2023-05-29T07:24:40;12.90;69.50
48208;DHT22;33997;53.278;9.708;2023-05-29T07:27:06;13.00;69.50
48208;DHT22;33997;53.278;9.708;2023-05-29T07:29:32;13.50;70.00
48208;DHT22;33997;53.278;9.708;2023-05-29T07:31:57;13.20;67.00
48208;DHT22;33997;53.278;9.708;2023-05-29T07:34:23;13.20;68.60
48208;DHT22;33997;53.278;9.708;2023-05-29T07:37:03;13.30;67.10
48208;DHT22;33997;53.278;9.708;2023-05-29T07:39:32;13.10;66.20
48208;DHT22;33997;53.278;9.708;2023-05-29T07:42:02;13.30;66.60
48208;DHT22;33997;53.278;9.708;2023-05-29T07:44:27;13.40;66.40
48208;DHT22;33997;53.278;9.708;2023-05-29T07:46:53;13.50;67.30
48208;DHT22;33997;53.278;9.708;2023-05-29T07:49:20;13.40;66.80
48208;DHT22;33997;53.278;9.708;2023-05-29T07:51:45;13.60;67.30
48208;DHT22;33997;53.278;9.708;2023-05-29T07:54:11;14.00;64.40
48208;DHT22;33997;53.278;9.708;2023-05-29T07:56:36;14.30;65.30
48208;DHT22;33997;53.278;9.708;2023-05-29T07:59:02;14.50;64.20
48208;DHT22;33997;53.278;9.708;2023-05-29T08:01:28;14.60;65.80
48208;DHT22;33997;53.278;9.708;2023-05-29T08:03:54;14.60;63.30
48208;DHT22;33997;53.278;9.708;2023-05-29T08:06:19;14.80;62.50
48208;DHT22;33997;53.278;9.708;2023-05-29T08:08:45;14.80;63.60
48208;DHT22;33997;53.278;9.708;2023-05-29T08:11:11;14.70;61.80
48208;DHT22;33997;53.278;9.708;2023-05-29T08:13:36;14.70;61.30
48208;DHT22;33997;53.278;9.708;2023-05-29T08:16:02;14.90;62.60
48208;DHT22;33997;53.278;9.708;2023-05-29T08:18:31;15.20;60.50
48208;DHT22;33997;53.278;9.708;2023-05-29T08:20:57;15.60;60.30
48208;DHT22;33997;53.278;9.708;2023-05-29T08:23:23;15.80;60.20
48208;DHT22;33997;53.278;9.708;2023-05-29T08:25:49;15.90;61.30
48208;DHT22;33997;53.278;9.708;2023-05-29T08:28:15;15.60;60.60
48208;DHT22;33997;53.278;9.708;2023-05-29T08:30:40;16.20;61.80
48208;DHT22;33997;53.278;9.708;2023-05-29T08:33:06;16.00;61.30
48208;DHT22;33997;53.278;9.708;2023-05-29T08:35:32;15.90;59.50
48208;DHT22;33997;53.278;9.708;2023-05-29T08:37:58;16.10;57.20
48208;DHT22;33997;53.278;9.708;2023-05-29T08:40:24;16.00;58.60
48208;DHT22;33997;53.278;9.708;2023-05-29T08:43:21;15.80;58.70
48208;DHT22;33997;53.278;9.708;2023-05-29T08:45:48;15.80;60.90
48208;DHT22;33997;53.278;9.708;2023-05-29T08:48:19;16.30;58.60
48208;DHT22;33997;53.278;9.708;2023-05-29T08:50:46;16.00;57.50
48208;DHT22;33997;53.278;9.708;2023-05-29T08:53:13;16.20;56.60
48208;DHT22;33997;53.278;9.708;2023-05-29T08:55:39;16.40;56.60
48208;DHT22;33997;53.278;9.708;2023-05-29T08:58:05;16.50;56.60
48208;DHT22;33997;53.278;9.708;2023-05-29T09:00:32;16.90;56.30
48208;DHT22;33997;53.278;9.708;2023-05-29T09:02:58;16.80;57.90
48208;DHT22;33997;53.278;9.708;2023-05-29T09:05:25;17.50;55.90
48208;DHT22;33997;53.278;9.708;2023-05-29T09:07:53;17.00;56.20
48208;DHT22;33997;53.278;9.708;2023-05-29T09:10:19;17.30;55.00
48208;DHT22;33997;53.278;9.708;2023-05-29T09:12:46;16.70;52.80
48208;DHT22;33997;53.278;9.708;2023-05-29T09:15:19;16.80;53.00
48208;DHT22;33997;53.278;9.708;2023-05-29T09:17:50;16.90;54.50
48208;DHT22;33997;53.278;9.708;2023-05-29T09:20:17;17.20;54.50
48208;DHT22;33997;53.278;9.708;2023-05-29T09:22:55;17.40;53.40
48208;DHT22;33997;53.278;9.708;2023-05-29T09:25:26;17.20;52.40
48208;DHT22;33997;53.278;9.708;2023-05-29T09:28:00;16.90;54.10
48208;DHT22;33997;53.278;9.708;2023-05-29T09:30:45;16.60;54.50
48208;DHT22;33997;53.278;9.708;2023-05-29T09:33:15;16.60;53.10
48208;DHT22;33997;53.278;9.708;2023-05-29T09:35:45;17.50;53.20
48208;DHT22;33997;53.278;9.708;2023-05-29T09:38:13;18.20;53.90
48208;DHT22;33997;53.278;9.708;2023-05-29T09:40:39;18.30;51.70
48208;DHT22;33997;53.278;9.708;2023-05-29T09:43:09;18.50;50.00
48208;DHT22;33997;53.278;9.708;2023-05-29T09:45:40;18.00;50.50
48208;DHT22;33997;53.278;9.708;2023-05-29T09:48:07;17.50;51.50
48208;DHT22;33997;53.278;9.708;2023-05-29T09:50:34;17.50;50.90
48208;DHT22;33997;53.278;9.708;2023-05-29T09:53:00;17.60;50.40
48208;DHT22;33997;53.278;9.708;2023-05-29T09:55:27;17.40;52.10
48208;DHT22;33997;53.278;9.708;2023-05-29T09:57:54;17.60;50.30
48208;DHT22;33997;53.278;9.708;2023-05-29T10:00:20;18.20;51.50
48208;DHT22;33997;53.278;9.708;2023-05-29T10:02:47;17.90;50.30
48208;DHT22;33997;53.278;9.708;2023-05-29T10:05:13;18.10;51.20
48208;DHT22;33997;53.278;9.708;2023-05-29T10:07:44;18.10;49.20
48208;DHT22;33997;53.278;9.708;2023-05-29T10:10:13;18.00;50.80
48208;DHT22;33997;53.278;9.708;2023-05-29T10:12:44;18.50;49.80
48208;DHT22;33997;53.278;9.708;2023-05-29T10:15:14;18.00;49.40
48208;DHT22;33997;53.278;9.708;2023-05-29T10:17:50;18.00;47.70
48208;DHT22;33997;53.278;9.708;2023-05-29T10:20:17;18.50;49.10
48208;DHT22;33997;53.278;9.708;2023-05-29T10:22:47;19.00;47.90
48208;DHT22;33997;53.278;9.708;2023-05-29T10:25:13;19.10;49.00
48208;DHT22;33997;53.278;9.708;2023-05-29T10:27:41;19.70;49.40
48208;DHT22;33997;53.278;9.708;2023-05-29T10:30:30;20.00;46.50
48208;DHT22;33997;53.278;9.708;2023-05-29T10:33:08;20.00;47.10
48208;DHT22;33997;53.278;9.708;2023-05-29T10:35:45;19.50;48.40
48208;DHT22;33997;53.278;9.708;2023-05-29T10:38:16;19.60;48.20
48208;DHT22;33997;53.278;9.708;2023-05-29T10:40:43;20.20;47.70
48208;DHT22;33997;53.278;9.708;2023-05-29T10:43:30;19.90;47.30
48208;DHT22;33997;53.278;9.708;2023-05-29T10:45:56;19.50;45.10
48208;DHT22;33997;53.278;9.708;2023-05-29T10:50:54;20.00;46.70
48208;DHT22;33997;53.278;9.708;2023-05-29T10:53:26;20.00;44.30
48208;DHT22;33997;53.278;9.708;2023-05-29T10:55:55;19.40;45.60
48208;DHT22;33997;53.278;9.708;2023-05-29T10:58:23;19.00;46.80
48208;DHT22;33997;53.278;9.708;2023-05-29T11:00:49;19.70;48.70
48208;DHT22;33997;53.278;9.708;2023-05-29T11:03:25;20.30;45.70
48208;DHT22;33997;53.278;9.708;2023-05-29T11:05:59;20.50;46.60
48208;DHT22;33997;53.278;9.708;2023-05-29T11:08:55;20.60;46.10
48208;DHT22;33997;53.278;9.708;2023-05-29T11:13:53;20.20;44.00
48208;DHT22;33997;53.278;9.708;2023-05-29T11:18:53;20.70;43.60
48208;DHT22;33997;53.278;9.708;2023-05-29T11:21:31;20.60;43.80
48208;DHT22;33997;53.278;9.708;2023-05-29T11:24:00;20.50;43.70
48208;DHT22;33997;53.278;9.708;2023-05-29T11:26:28;21.10;44.00
48208;DHT22;33997;53.278;9.708;2023-05-29T11:29:01;21.50;44.20
48208;DHT22;33997;53.278;9.708;2023-05-29T11:31:28;21.60;43.70
48208;DHT22;33997;53.278;9.708;2023-05-29T11:33:59;21.90;43.70
48208;DHT22;33997;53.278;9.708;2023-05-29T11:36:26;22.40;42.20
48208;DHT22;33997;53.278;9.708;2023-05-29T11:38:52;22.40;43.40
48208;DHT22;33997;53.278;9.708;2023-05-29T11:41:18;21.80;41.10
48208;DHT22;33997;53.278;9.708;2023-05-29T11:43:44;21.60;42.20
48208;DHT22;33997;53.278;9.708;2023-05-29T11:46:20;21.50;41.70
48208;DHT22;33997;53.278;9.708;2023-05-29T11:48:49;21.40;42.70
48208;DHT22;33997;53.278;9.708;2023-05-29T11:51:15;21.50;41.70
48208;DHT22;33997;53.278;9.708;2023-05-29T11:53:46;22.10;43.20
48208;DHT22;33997;53.278;9.708;2023-05-29T11:56:12;22.60;44.20
48208;DHT22;33997;53.278;9.708;2023-05-29T11:58:38;22.50;41.40
48208;DHT22;33997;53.278;9.708;2023-05-29T12:01:04;23.00;41.60
48208;DHT22;33997;53.278;9.708;2023-05-29T12:03:30;23.10;39.60
48208;DHT22;33997;53.278;9.708;2023-05-29T12:05:55;23.00;40.90
48208;DHT22;33997;53.278;9.708;2023-05-29T12:08:24;23.00;39.10
48208;DHT22;33997;53.278;9.708;2023-05-29T12:10:52;22.30;39.30
48208;DHT22;33997;53.278;9.708;2023-05-29T12:13:21;23.40;39.90
48208;DHT22;33997;53.278;9.708;2023-05-29T12:15:51;23.80;39.00
48208;DHT22;33997;53.278;9.708;2023-05-29T12:18:17;24.00;40.70
48208;DHT22;33997;53.278;9.708;2023-05-29T12:20:43;23.70;36.90
48208;DHT22;33997;53.278;9.708;2023-05-29T12:23:08;23.50;39.50
48208;DHT22;33997;53.278;9.708;2023-05-29T12:25:34;24.10;38.20
48208;DHT22;33997;53.278;9.708;2023-05-29T12:28:03;24.40;38.70
48208;DHT22;33997;53.278;9.708;2023-05-29T12:30:29;24.30;37.50
48208;DHT22;33997;53.278;9.708;2023-05-29T12:32:54;24.90;39.40
48208;DHT22;33997;53.278;9.708;2023-05-29T12:35:25;24.30;36.40
48208;DHT22;33997;53.278;9.708;2023-05-29T12:38:02;25.50;38.80
48208;DHT22;33997;53.278;9.708;2023-05-29T12:40:31;25.50;38.90
48208;DHT22;33997;53.278;9.708;2023-05-29T12:43:03;25.60;39.40
48208;DHT22;33997;53.278;9.708;2023-05-29T12:45:32;24.80;36.40
48208;DHT22;33997;53.278;9.708;2023-05-29T12:48:04;24.70;38.50
48208;DHT22;33997;53.278;9.708;2023-05-29T12:50:31;25.50;37.80
48208;DHT22;33997;53.278;9.708;2023-05-29T12:53:05;25.10;34.40
48208;DHT22;33997;53.278;9.708;2023-05-29T12:55:34;25.00;36.50
48208;DHT22;33997;53.278;9.708;2023-05-29T13:00:39;25.50;37.10
48208;DHT22;33997;53.278;9.708;2023-05-29T13:03:06;25.50;34.90
48208;DHT22;33997;53.278;9.708;2023-05-29T13:05:31;26.00;35.50
48208;DHT22;33997;53.278;9.708;2023-05-29T13:07:58;26.50;36.70
48208;DHT22;33997;53.278;9.708;2023-05-29T13:10:24;25.70;34.40
48208;DHT22;33997;53.278;9.708;2023-05-29T13:12:50;25.50;35.00
48208;DHT22;33997;53.278;9.708;2023-05-29T13:15:19;26.40;35.40
48208;DHT22;33997;53.278;9.708;2023-05-29T13:17:45;25.40;35.90
48208;DHT22;33997;53.278;9.708;2023-05-29T13:20:11;26.50;37.10
48208;DHT22;33997;53.278;9.708;2023-05-29T13:22:38;26.10;35.80
48208;DHT22;33997;53.278;9.708;2023-05-29T13:25:04;26.60;36.70
48208;DHT22;33997;53.278;9.708;2023-05-29T13:27:32;26.50;33.80
48208;DHT22;33997;53.278;9.708;2023-05-29T13:29:59;25.80;35.80
48208;DHT22;33997;53.278;9.708;2023-05-29T13:32:25;27.30;35.90
48208;DHT22;33997;53.278;9.708;2023-05-29T13:34:50;27.20;35.50
48208;DHT22;33997;53.278;9.708;2023-05-29T13:37:16;27.80;35.20
48208;DHT22;33997;53.278;9.708;2023-05-29T13:39:41;27.90;36.20
48208;DHT22;33997;53.278;9.708;2023-05-29T13:42:07;26.80;37.30
48208;DHT22;33997;53.278;9.708;2023-05-29T13:44:33;27.60;34.70
48208;DHT22;33997;53.278;9.708;2023-05-29T13:46:58;26.90;33.70
48208;DHT22;33997;53.278;9.708;2023-05-29T13:49:26;26.20;34.80
48208;DHT22;33997;53.278;9.708;2023-05-29T13:51:51;26.00;34.60
48208;DHT22;33997;53.278;9.708;2023-05-29T13:54:17;27.20;35.20
48208;DHT22;33997;53.278;9.708;2023-05-29T13:56:43;27.20;32.40
48208;DHT22;33997;53.278;9.708;2023-05-29T13:59:08;27.60;31.50
48208;DHT22;33997;53.278;9.708;2023-05-29T14:01:34;26.40;33.60
48208;DHT22;33997;53.278;9.708;2023-05-29T14:04:00;27.40;33.80
48208;DHT22;33997;53.278;9.708;2023-05-29T14:06:26;26.10;35.70
48208;DHT22;33997;53.278;9.708;2023-05-29T14:08:52;25.80;36.00
48208;DHT22;33997;53.278;9.708;2023-05-29T14:11:17;26.00;36.30
48208;DHT22;33997;53.278;9.708;2023-05-29T14:13:43;25.30;37.70
48208;DHT22;33997;53.278;9.708;2023-05-29T14:16:08;25.60;37.50
48208;DHT22;33997;53.278;9.708;2023-05-29T14:18:34;25.60;37.10
48208;DHT22;33997;53.278;9.708;2023-05-29T14:20:59;25.70;37.50
48208;DHT22;33997;53.278;9.708;2023-05-29T14:23:25;25.50;38.40
48208;DHT22;33997;53.278;9.708;2023-05-29T14:25:50;24.20;38.90
48208;DHT22;33997;53.278;9.708;2023-05-29T14:28:16;24.00;39.30
48208;DHT22;33997;53.278;9.708;2023-05-29T14:30:42;24.00;41.00
48208;DHT22;33997;53.278;9.708;2023-05-29T14:33:08;24.50;41.30
48208;DHT22;33997;53.278;9.708;2023-05-29T14:35:34;25.10;37.80
48208;DHT22;33997;53.278;9.708;2023-05-29T14:38:00;24.90;39.00
48208;DHT22;33997;53.278;9.708;2023-05-29T14:40:26;24.30;39.60
48208;DHT22;33997;53.278;9.708;2023-05-29T14:42:52;23.90;40.90
48208;DHT22;33997;53.278;9.708;2023-05-29T14:45:17;23.90;41.10
48208;DHT22;33997;53.278;9.708;2023-05-29T14:47:43;24.20;40.30
48208;DHT22;33997;53.278;9.708;2023-05-29T14:50:09;24.70;39.50
48208;DHT22;33997;53.278;9.708;2023-05-29T14:52:34;25.20;38.70
48208;DHT22;33997;53.278;9.708;2023-05-29T14:55:06;25.50;38.40
48208;DHT22;33997;53.278;9.708;2023-05-29T14:57:32;24.80;39.10
48208;DHT22;33997;53.278;9.708;2023-05-29T15:00:03;25.00;38.90
48208;DHT22;33997;53.278;9.708;2023-05-29T15:02:29;26.00;36.30
48208;DHT22;33997;53.278;9.708;2023-05-29T15:04:55;25.00;39.60
48208;DHT22;33997;53.278;9.708;2023-05-29T15:07:21;24.50;39.40
48208;DHT22;33997;53.278;9.708;2023-05-29T15:09:46;24.90;38.20
48208;DHT22;33997;53.278;9.708;2023-05-29T15:12:12;25.20;37.50
48208;DHT22;33997;53.278;9.708;2023-05-29T15:14:37;24.40;39.60
48208;DHT22;33997;53.278;9.708;2023-05-29T15:17:03;24.80;38.30
48208;DHT22;33997;53.278;9.708;2023-05-29T15:19:29;25.20;38.30
48208;DHT22;33997;53.278;9.708;2023-05-29T15:21:56;24.90;36.80
48208;DHT22;33997;53.278;9.708;2023-05-29T15:24:21;24.70;39.30
48208;DHT22;33997;53.278;9.708;2023-05-29T15:26:47;25.50;36.80
48208;DHT22;33997;53.278;9.708;2023-05-29T15:29:12;25.00;37.30
48208;DHT22;33997;53.278;9.708;2023-05-29T15:31:38;25.70;36.10
48208;DHT22;33997;53.278;9.708;2023-05-29T15:34:03;26.60;36.30
48208;DHT22;33997;53.278;9.708;2023-05-29T15:36:29;24.30;35.60
48208;DHT22;33997;53.278;9.708;2023-05-29T15:38:55;23.30;37.20
48208;DHT22;33997;53.278;9.708;2023-05-29T15:41:20;23.80;37.40
48208;DHT22;33997;53.278;9.708;2023-05-29T15:43:46;24.10;37.20
48208;DHT22;33997;53.278;9.708;2023-05-29T15:46:12;24.10;37.50
48208;DHT22;33997;53.278;9.708;2023-05-29T15:48:37;23.90;37.60
48208;DHT22;33997;53.278;9.708;2023-05-29T15:51:03;24.10;38.80
48208;DHT22;33997;53.278;9.708;2023-05-29T15:53:28;24.60;38.00
48208;DHT22;33997;53.278;9.708;2023-05-29T15:55:54;24.80;36.90